Time;durP1;ratioP1;P1;durP2;ratioP2;P2;SDS_P1;SDS_P2;PMS_P1;PMS_P2;Temp;Humidity;BMP_temperature;BMP_pressure;BME280_temperature;BME280_humidity;BME280_pressure;Samples;Min_cycle;Max_cycle;Signal;HPM_P1;HPM_P2
2021/10/24 00:00:46;;;;;;;;;;;;;;;9.78;89.49;100401.25;4996158;28;1890;-63
2021/10/24 00:03:13;;;;;;;;;;;;;;;9.74;88.82;100389.38;5013770;28;850;-64
2021/10/24 00:05:40;;;;;;;;;;;;;;;9.68;88.97;100391.69;5013625;28;914;-64
2021/10/24 00:08:06;;;;;;;;;;;;;;;9.65;89.02;100386.16;5013927;28;918;-65
2021/10/24 00:10:33;;;;;;;;;;;;;;;9.63;89.52;100383.00;5012926;28;946;-64
2021/10/24 00:13:00;;;;;;;;;;;;;;;9.59;90.52;100380.19;5013584;28;846;-63
2021/10/24 00:15:27;;;;;;;;;;;;;;;9.60;90.60;100379.00;5013519;28;842;-65
2021/10/24 00:17:54;;;;;;;;;;;;;;;9.57;90.75;100379.78;5013884;28;915;-67
2021/10/24 00:20:21;;;;;;;;;;;;;;;9.55;89.88;100379.38;5013308;28;1906;-67
2021/10/24 00:22:48;;;;;;;;;;;;;;;9.49;90.25;100384.44;5013332;28;875;-68
2021/10/24 00:25:15;;;;;;;;;;;;;;;9.48;90.42;100409.66;5013367;28;811;-67
2021/10/24 00:27:41;;;;;;;;;;;;;;;9.47;90.12;100416.34;5013172;28;824;-65
2021/10/24 00:30:08;;;;;;;;;;;;;;;9.42;88.93;100411.97;5013229;28;844;-64
2021/10/24 00:32:35;;;;;;;;;;;;;;;9.33;88.13;100398.50;5013189;28;830;-66
2021/10/24 00:35:02;;;;;;;;;;;;;;;9.25;89.11;100424.41;4995582;28;1343;-65
2021/10/24 00:37:27;;;;;;;;;;;;;;;9.23;89.68;100415.72;4995416;28;883;-65
2021/10/24 00:39:53;;;;;;;;;;;;;;;9.20;90.21;100417.28;4995367;28;1965;-65
2021/10/24 00:42:20;;;;;;;;;;;;;;;9.17;89.35;100434.59;5013158;28;807;-66
2021/10/24 00:44:47;;;;;;;;;;;;;;;9.09;88.36;100432.09;5013208;28;807;-68
2021/10/24 00:47:14;;;;;;;;;;;;;;;8.96;88.07;100418.59;5012927;28;866;-68
2021/10/24 00:49:41;;;;;;;;;;;;;;;8.89;87.83;100431.50;5012860;28;873;-66
2021/10/24 00:52:08;;;;;;;;;;;;;;;8.77;89.02;100433.34;5012826;28;799;-65
2021/10/24 00:54:35;;;;;;;;;;;;;;;8.72;89.32;100446.63;5012704;28;795;-65
2021/10/24 01:09:13;;;;;;;;;;;;;;;8.48;88.92;100418.38;5012860;28;606;-62
2021/10/24 01:11:41;;;;;;;;;;;;;;;8.44;89.28;100425.81;5012736;28;796;-61
2021/10/24 01:14:08;;;;;;;;;;;;;;;8.41;89.60;100423.00;5012461;28;831;-60
2021/10/24 01:16:42;;;;;;;;;;;;;;;8.38;89.95;100424.50;4994854;28;1323;-60
2021/10/24 01:19:23;;;;;;;;;;;;;;;8.34;90.81;100412.66;5012273;28;1287;-63
2021/10/24 01:21:49;;;;;;;;;;;;;;;8.34;90.79;100449.25;5011413;28;823;-64
2021/10/24 01:24:16;;;;;;;;;;;;;;;8.31;90.69;100419.69;5012231;28;828;-63
2021/10/24 01:26:44;;;;;;;;;;;;;;;8.33;90.21;100435.84;5012477;28;815;-62
2021/10/24 01:29:12;;;;;;;;;;;;;;;8.30;91.01;100415.38;5012244;28;795;-62
2021/10/24 01:31:38;;;;;;;;;;;;;;;8.29;90.89;100435.78;5012153;28;839;-63
2021/10/24 01:34:19;;;;;;;;;;;;;;;8.24;91.32;100427.88;5012163;28;855;-63
2021/10/24 01:36:58;;;;;;;;;;;;;;;8.26;90.20;100433.81;5012166;28;823;-63
2021/10/24 01:39:27;;;;;;;;;;;;;;;8.21;90.56;100420.34;5011982;28;1886;-62
2021/10/24 01:42:00;;;;;;;;;;;;;;;8.13;90.32;100432.44;5012159;28;882;-63
2021/10/24 01:44:26;;;;;;;;;;;;;;;8.11;90.63;100437.50;5011988;28;882;-62
2021/10/24 01:46:54;;;;;;;;;;;;;;;8.08;90.05;100433.50;4994244;28;1356;-63
2021/10/24 01:49:21;;;;;;;;;;;;;;;8.06;90.21;100440.56;5011868;28;898;-63
2021/10/24 01:51:48;;;;;;;;;;;;;;;8.04;90.07;100442.88;5011811;28;835;-63
2021/10/24 01:54:15;;;;;;;;;;;;;;;8.00;89.74;100445.59;5011853;28;859;-65
2021/10/24 01:56:59;;;;;;;;;;;;;;;7.97;89.68;100443.56;5011701;28;878;-62
2021/10/24 01:59:33;;;;;;;;;;;;;;;7.97;89.09;100416.84;5011788;28;1956;-63
2021/10/24 02:02:09;;;;;;;;;;;;;;;7.92;90.24;100436.44;5011767;28;894;-62
2021/10/24 02:04:56;;;;;;;;;;;;;;;7.91;89.97;100415.56;5011799;28;839;-64
2021/10/24 02:07:25;;;;;;;;;;;;;;;7.93;89.48;100412.44;5011752;28;850;-64
2021/10/24 02:10:09;;;;;;;;;;;;;;;7.91;89.64;100415.56;5011751;28;811;-66
2021/10/24 02:12:41;;;;;;;;;;;;;;;7.91;89.26;100415.56;5011782;28;874;-68
2021/10/24 02:15:10;;;;;;;;;;;;;;;7.91;88.96;100399.03;4994043;28;918;-67
2021/10/24 02:17:36;;;;;;;;;;;;;;;7.88;89.26;100435.56;5012052;28;978;-65
2021/10/24 02:20:17;;;;;;;;;;;;;;;7.86;89.31;100398.59;5011340;28;1910;-67
2021/10/24 02:22:46;;;;;;;;;;;;;;;7.81;90.04;100432.72;5011579;28;858;-62
2021/10/24 02:25:38;;;;;;;;;;;;;;;7.82;89.97;100445.31;5011560;28;807;-63
2021/10/24 02:34:10;;;;;;;;;;;;;;;7.86;89.41;100448.91;5013626;28;625;-63
2021/10/24 02:36:41;;;;;;;;;;;;;;;7.90;88.92;100452.50;5015400;28;835;-63
2021/10/24 02:39:14;;;;;;;;;;;;;;;7.90;89.21;100451.72;5015591;28;823;-64
2021/10/24 02:41:40;;;;;;;;;;;;;;;7.91;88.78;100437.56;5015218;28;1943;-65
2021/10/24 02:44:07;;;;;;;;;;;;;;;7.92;88.94;100463.94;5015202;28;827;-66
2021/10/24 02:46:39;;;;;;;;;;;;;;;7.88;89.16;100454.84;5015158;28;835;-65
2021/10/24 02:49:05;;;;;;;;;;;;;;;7.82;89.56;100459.06;5015103;28;878;-66
2021/10/24 02:51:34;;;;;;;;;;;;;;;7.92;88.63;100472.22;4997384;28;1304;-67
2021/10/24 02:54:01;;;;;;;;;;;;;;;7.85;89.32;100469.34;5015250;28;807;-68
2021/10/24 02:56:31;;;;;;;;;;;;;;;7.88;89.17;100438.31;5014949;28;882;-64
2021/10/24 02:59:15;;;;;;;;;;;;;;;7.86;89.77;100464.63;5014887;28;811;-66
2021/10/24 03:01:41;;;;;;;;;;;;;;;7.85;90.06;100433.56;5014777;28;1977;-67
2021/10/24 03:04:12;;;;;;;;;;;;;;;7.86;89.27;100462.66;5014881;28;831;-66
2021/10/24 03:06:39;;;;;;;;;;;;;;;7.88;89.78;100452.09;5014932;28;811;-66
2021/10/24 03:24:45;;;;;;;;;;;;;;;7.91;90.94;100470.59;5014469;28;606;-64
2021/10/24 03:27:34;;;;;;;;;;;;;;;7.90;90.24;100473.75;5014694;28;913;-67
2021/10/24 03:30:01;;;;;;;;;;;;;;;7.84;90.91;100492.50;5014347;28;831;-67
2021/10/24 03:32:28;;;;;;;;;;;;;;;7.84;90.42;100462.25;5014659;28;803;-68
2021/10/24 03:34:54;;;;;;;;;;;;;;;7.86;90.76;100487.44;4996684;28;1252;-65
2021/10/24 03:37:31;;;;;;;;;;;;;;;7.94;90.05;100475.41;5014232;28;839;-65
2021/10/24 03:39:58;;;;;;;;;;;;;;;7.92;89.98;100474.97;5014123;28;1975;-66
2021/10/24 03:42:24;;;;;;;;;;;;;;;7.83;91.02;100470.84;5014157;28;861;-66
2021/10/24 03:44:51;;;;;;;;;;;;;;;7.76;92.26;100477.03;5013099;28;821;-66
2021/10/24 03:47:16;;;;;;;;;;;;;;;7.74;92.60;100476.59;5014113;28;894;-65
2021/10/24 03:49:42;;;;;;;;;;;;;;;7.80;91.78;100475.16;4996510;28;1370;-65
2021/10/24 03:52:09;;;;;;;;;;;;;;;7.81;91.37;100493.25;5013875;28;869;-65
2021/10/24 03:54:36;;;;;;;;;;;;;;;7.81;91.47;100493.25;5013853;28;890;-64
2021/10/24 03:57:02;;;;;;;;;;;;;;;7.82;91.26;100483.84;5013905;28;843;-65
2021/10/24 03:59:29;;;;;;;;;;;;;;;7.78;91.78;100510.50;5013793;28;827;-65
2021/10/24 04:01:56;;;;;;;;;;;;;;;7.76;92.26;100488.84;5013844;28;826;-65
2021/10/24 04:04:23;;;;;;;;;;;;;;;7.75;92.46;100487.25;5013772;28;918;-64
2021/10/24 04:06:49;;;;;;;;;;;;;;;7.75;92.75;100489.22;5013847;28;992;-65
2021/10/24 04:09:16;;;;;;;;;;;;;;;7.77;92.55;100509.69;5013678;28;870;-63
2021/10/24 04:11:47;;;;;;;;;;;;;;;7.78;92.21;100496.72;5013972;28;823;-62
2021/10/24 04:14:13;;;;;;;;;;;;;;;7.80;92.33;100475.16;5013522;28;890;-63
2021/10/24 04:16:40;;;;;;;;;;;;;;;7.82;92.07;100496.81;5013618;28;910;-62
2021/10/24 04:19:07;;;;;;;;;;;;;;;7.82;91.94;100516.06;5013476;28;822;-62
2021/10/24 04:21:34;;;;;;;;;;;;;;;7.82;91.90;100521.56;5013246;28;1957;-64
2021/10/24 04:24:01;;;;;;;;;;;;;;;7.83;92.22;100512.97;5013315;28;815;-63
2021/10/24 04:26:29;;;;;;;;;;;;;;;7.82;91.96;100525.13;5013351;28;831;-64
2021/10/24 04:28:56;;;;;;;;;;;;;;;7.81;92.46;100518.03;5013267;28;924;-64
2021/10/24 04:31:49;;;;;;;;;;;;;;;7.87;91.61;100533.09;5013248;28;815;-66
2021/10/24 04:34:47;;;;;;;;;;;;;;;7.91;91.04;100538.63;5013982;28;764;-64
2021/10/24 04:40:16;;;;;;;;;;;;;;;7.92;91.48;100576.81;5012835;28;1906;-65
2021/10/24 04:42:43;;;;;;;;;;;;;;;7.94;91.14;100599.25;5013041;28;882;-71
2021/10/24 04:45:10;;;;;;;;;;;;;;;8.00;91.07;100618.22;5012979;28;858;-69
2021/10/24 04:47:37;;;;;;;;;;;;;;;8.05;91.00;100634.47;5012996;28;1034;-69
2021/10/24 04:50:04;;;;;;;;;;;;;;;8.17;89.92;100623.25;4995211;28;1280;-68
2021/10/24 04:52:31;;;;;;;;;;;;;;;8.25;89.48;100644.25;5012781;28;822;-69
2021/10/24 04:54:58;;;;;;;;;;;;;;;8.29;89.21;100660.84;5012747;28;862;-68
2021/10/24 04:57:25;;;;;;;;;;;;;;;8.34;88.61;100677.06;5012517;28;850;-68
2021/10/24 04:59:52;;;;;;;;;;;;;;;8.37;88.85;100684.63;5012667;28;1979;-68
2021/10/24 05:02:19;;;;;;;;;;;;;;;8.36;89.42;100689.34;5012797;28;878;-66
2021/10/24 05:04:46;;;;;;;;;;;;;;;8.36;89.64;100700.34;5012702;28;913;-64
2021/10/24 05:07:13;;;;;;;;;;;;;;;8.38;89.58;100708.22;5012588;28;880;-65
2021/10/24 05:09:40;;;;;;;;;;;;;;;8.38;90.07;100711.81;5012639;28;866;-64
2021/10/24 05:17:56;;;;;;;;;;;;;;;8.40;89.39;100733.47;5794886;23;1532;-68
2021/10/24 05:20:23;;;;;;;;;;;;;;;8.39;89.80;100737.38;5012311;28;1971;-66
2021/10/24 05:22:50;;;;;;;;;;;;;;;8.41;89.98;100750.81;5012601;28;826;-66
2021/10/24 05:25:17;;;;;;;;;;;;;;;8.40;89.85;100758.25;5012287;28;810;-67
2021/10/24 05:27:43;;;;;;;;;;;;;;;8.39;89.89;100760.22;5012278;28;814;-66
2021/10/24 05:30:10;;;;;;;;;;;;;;;8.36;89.88;100766.47;5012221;28;976;-67
2021/10/24 05:32:36;;;;;;;;;;;;;;;8.35;89.90;100755.81;5012187;28;779;-66
2021/10/24 05:35:02;;;;;;;;;;;;;;;8.35;90.27;100762.09;5012177;28;838;-66
2021/10/24 05:37:29;;;;;;;;;;;;;;;8.39;90.24;100770.44;5012115;28;807;-66
2021/10/24 05:39:55;;;;;;;;;;;;;;;8.43;89.34;100776.03;5011997;28;1973;-65
2021/10/24 05:42:22;;;;;;;;;;;;;;;8.49;89.86;100774.59;5012155;28;838;-65
2021/10/24 05:44:49;;;;;;;;;;;;;;;8.52;89.01;100787.66;5012003;28;878;-64
2021/10/24 05:47:15;;;;;;;;;;;;;;;8.56;88.86;100775.53;5011947;28;846;-65
2021/10/24 05:49:42;;;;;;;;;;;;;;;8.61;88.91;100784.66;5011910;28;866;-64
2021/10/24 05:52:09;;;;;;;;;;;;;;;8.61;88.71;100790.97;5011967;28;870;-64
2021/10/24 05:54:35;;;;;;;;;;;;;;;8.63;88.95;100793.38;5011880;28;854;-64
2021/10/24 05:57:02;;;;;;;;;;;;;;;8.66;88.11;100796.16;5012170;28;885;-64
2021/10/24 05:59:29;;;;;;;;;;;;;;;8.70;87.84;100804.50;5011870;28;834;-63
2021/10/24 06:01:56;;;;;;;;;;;;;;;8.71;87.60;100808.88;5012047;28;1957;-63
2021/10/24 06:04:23;;;;;;;;;;;;;;;8.73;87.68;100815.59;5011942;28;881;-63
2021/10/24 06:06:49;;;;;;;;;;;;;;;8.77;88.05;100813.72;5012065;28;826;-63
2021/10/24 06:09:16;;;;;;;;;;;;;;;8.81;88.22;100819.28;5016852;28;854;-62
2021/10/24 06:11:47;;;;;;;;;;;;;;;8.87;88.20;100826.09;5018582;28;814;-63
2021/10/24 06:14:14;;;;;;;;;;;;;;;8.92;88.13;100830.53;5018202;28;849;-63
2021/10/24 06:16:41;;;;;;;;;;;;;;;8.96;87.56;100834.94;5018225;28;1045;-62
2021/10/24 06:19:08;;;;;;;;;;;;;;;9.05;87.24;100851.25;5018016;28;1389;-62
2021/10/24 06:21:34;;;;;;;;;;;;;;;9.08;86.84;100847.75;5018137;28;1918;-62
2021/10/24 06:24:01;;;;;;;;;;;;;;;9.11;86.54;100849.78;5000506;28;1197;-62
2021/10/24 06:26:27;;;;;;;;;;;;;;;9.14;85.90;100851.00;5018153;28;811;-61
2021/10/24 06:28:54;;;;;;;;;;;;;;;9.18;85.88;100858.16;5018087;28;890;-62
2021/10/24 06:31:21;;;;;;;;;;;;;;;9.22;85.76;100858.25;5018044;28;862;-61
2021/10/24 06:33:47;;;;;;;;;;;;;;;9.23;85.37;100845.25;5018030;28;874;-61
2021/10/24 06:36:14;;;;;;;;;;;;;;;9.25;85.80;100854.75;5000396;28;1304;-61
2021/10/24 06:38:40;;;;;;;;;;;;;;;9.32;85.45;100860.38;5018188;28;802;-61
2021/10/24 06:41:07;;;;;;;;;;;;;;;9.37;85.59;100851.00;5018152;28;1889;-61
2021/10/24 06:43:33;;;;;;;;;;;;;;;9.38;85.19;100856.13;5018498;28;823;-61
2021/10/24 06:46:01;;;;;;;;;;;;;;;9.52;85.41;100854.81;5018254;28;827;-61
2021/10/24 06:48:28;;;;;;;;;;;;;;;9.55;84.11;100860.34;5018126;28;827;-61
2021/10/24 06:50:54;;;;;;;;;;;;;;;9.56;83.94;100853.69;5018401;28;838;-61
2021/10/24 06:53:21;;;;;;;;;;;;;;;9.58;83.85;100856.88;5018208;28;830;-61
2021/10/24 06:55:46;;;;;;;;;;;;;;;9.62;83.14;100873.47;5018517;28;830;-61
2021/10/24 06:58:13;;;;;;;;;;;;;;;9.67;83.07;100886.19;5017794;28;823;-61
2021/10/24 07:00:39;;;;;;;;;;;;;;;9.75;82.80;100893.41;5017739;28;1894;-61
2021/10/24 07:03:06;;;;;;;;;;;;;;;9.86;82.75;100902.66;5017755;28;798;-61
2021/10/24 07:05:33;;;;;;;;;;;;;;;9.91;82.85;100899.56;5000160;28;945;-61
2021/10/24 07:08:00;;;;;;;;;;;;;;;9.97;82.59;100900.84;5017751;28;798;-61
2021/10/24 07:10:27;;;;;;;;;;;;;;;10.06;82.47;100905.31;5017790;28;870;-61
2021/10/24 07:12:53;;;;;;;;;;;;;;;10.09;82.82;100899.03;5017782;28;834;-61
2021/10/24 07:15:21;;;;;;;;;;;;;;;10.12;82.97;100904.63;5000012;28;1212;-62
2021/10/24 07:17:48;;;;;;;;;;;;;;;10.16;82.22;100904.69;5017853;28;1376;-61
2021/10/24 07:20:15;;;;;;;;;;;;;;;10.17;82.42;100917.31;5015768;28;1999;-61
2021/10/24 07:22:42;;;;;;;;;;;;;;;10.14;82.36;100923.59;4997193;28;1201;-61
2021/10/24 07:25:09;;;;;;;;;;;;;;;10.19;82.64;100926.81;5014542;28;826;-61
2021/10/24 07:27:36;;;;;;;;;;;;;;;10.12;81.68;100937.00;5014568;28;846;-60
2021/10/24 07:30:03;;;;;;;;;;;;;;;10.10;82.03;100933.81;5014619;28;842;-61
2021/10/24 07:32:29;;;;;;;;;;;;;;;10.11;82.65;100944.47;5014384;28;810;-61
2021/10/24 07:34:56;;;;;;;;;;;;;;;10.09;82.31;100943.25;5014262;28;830;-61
2021/10/24 07:37:22;;;;;;;;;;;;;;;10.06;82.13;100946.75;5014319;28;834;-61
2021/10/24 07:39:49;;;;;;;;;;;;;;;10.04;82.45;100941.59;5014134;28;1945;-59
2021/10/24 07:42:15;;;;;;;;;;;;;;;10.17;82.57;100936.66;5014153;28;886;-61
2021/10/24 07:44:42;;;;;;;;;;;;;;;10.33;81.11;100931.81;5014012;28;870;-60
2021/10/24 07:47:08;;;;;;;;;;;;;;;10.31;80.51;100934.13;4996480;28;1189;-60
2021/10/24 07:49:35;;;;;;;;;;;;;;;10.43;81.04;100938.63;5014006;28;858;-61
2021/10/24 07:52:01;;;;;;;;;;;;;;;10.66;81.07;100935.78;5014031;28;811;-61
2021/10/24 07:54:27;;;;;;;;;;;;;;;10.73;79.74;100938.66;5013909;28;847;-60
2021/10/24 07:56:54;;;;;;;;;;;;;;;10.61;79.13;100944.41;4996339;28;1209;-61
2021/10/24 07:59:21;;;;;;;;;;;;;;;10.59;79.25;100955.06;5014180;28;834;-61
2021/10/24 08:01:48;;;;;;;;;;;;;;;10.77;79.86;100950.53;5013665;28;1953;-61
2021/10/24 08:04:14;;;;;;;;;;;;;;;10.86;79.88;100950.28;5013840;28;909;-61
2021/10/24 08:06:41;;;;;;;;;;;;;;;10.97;79.49;100953.94;5013689;28;866;-61
2021/10/24 08:09:09;;;;;;;;;;;;;;;11.06;79.12;100959.19;5013848;28;823;-61
2021/10/24 08:11:35;;;;;;;;;;;;;;;11.15;78.95;100954.16;5013588;28;803;-62
2021/10/24 08:14:06;;;;;;;;;;;;;;;11.18;78.46;100960.88;5013502;28;862;-61
2021/10/24 08:16:33;;;;;;;;;;;;;;;11.03;77.77;100963.50;5013526;28;993;-61
2021/10/24 08:19:00;;;;;;;;;;;;;;;11.06;78.20;100966.69;5013443;28;1231;-61
2021/10/24 08:21:26;;;;;;;;;;;;;;;11.16;77.67;100968.78;5013387;28;1918;-61
2021/10/24 08:23:53;;;;;;;;;;;;;;;11.36;76.98;100972.16;5013346;28;1010;-61
2021/10/24 08:26:21;;;;;;;;;;;;;;;11.30;74.74;100966.16;5013353;28;826;-61
2021/10/24 08:28:47;;;;;;;;;;;;;;;11.39;75.19;100969.44;5013265;28;859;-61
2021/10/24 08:31:16;;;;;;;;;;;;;;;11.58;75.45;100968.41;5012719;28;874;-61
2021/10/24 08:33:44;;;;;;;;;;;;;;;11.80;74.00;100955.59;4995663;28;1162;-61
2021/10/24 08:36:10;;;;;;;;;;;;;;;11.73;73.69;100961.03;5013131;28;895;-61
2021/10/24 08:38:36;;;;;;;;;;;;;;;11.94;73.63;100954.13;5013123;28;799;-61
2021/10/24 08:41:03;;;;;;;;;;;;;;;12.41;72.44;100956.03;5012957;28;1953;-61
2021/10/24 08:43:32;;;;;;;;;;;;;;;12.78;70.58;100966.16;4995458;28;843;-61
2021/10/24 08:46:00;;;;;;;;;;;;;;;13.20;70.08;100973.03;5012968;28;894;-60
2021/10/24 08:48:26;;;;;;;;;;;;;;;13.81;68.66;100984.28;5012934;28;905;-59
2021/10/24 08:50:53;;;;;;;;;;;;;;;13.84;68.51;100979.94;5012905;28;874;-59
2021/10/24 08:53:24;;;;;;;;;;;;;;;13.62;68.28;100985.47;5012861;28;870;-59
2021/10/24 08:55:51;;;;;;;;;;;;;;;14.02;67.97;100983.50;5013218;28;850;-58
2021/10/24 08:58:18;;;;;;;;;;;;;;;13.87;68.08;100973.59;5012761;28;815;-59
2021/10/24 09:00:44;;;;;;;;;;;;;;;13.27;68.75;100978.63;5013044;28;1886;-59
2021/10/24 09:03:11;;;;;;;;;;;;;;;13.03;71.48;100982.09;5012797;28;854;-60
2021/10/24 09:05:42;;;;;;;;;;;;;;;13.25;71.56;100994.09;5012946;28;869;-60
2021/10/24 09:08:12;;;;;;;;;;;;;;;13.27;69.68;100986.97;5012607;28;834;-60
2021/10/24 09:10:41;;;;;;;;;;;;;;;13.23;70.53;100983.38;5012527;28;798;-59
2021/10/24 09:13:11;;;;;;;;;;;;;;;13.42;68.56;100992.56;5012464;28;790;-60
2021/10/24 09:16:07;;;;;;;;;;;;;;;13.51;68.56;100978.31;4994814;28;1257;-59
2021/10/24 09:18:36;;;;;;;;;;;;;;;13.57;65.85;100979.50;4999441;28;1369;-60
2021/10/24 09:21:15;;;;;;;;;;;;;;;13.48;64.30;100982.66;5013063;28;1966;-60
2021/10/24 09:23:45;;;;;;;;;;;;;;;13.35;63.74;100992.53;5012345;28;838;-60
2021/10/24 09:26:25;;;;;;;;;;;;;;;13.11;66.05;100978.16;5012276;28;867;-60
2021/10/24 09:29:04;;;;;;;;;;;;;;;13.06;62.70;100989.66;5012287;28;847;-61
2021/10/24 09:31:32;;;;;;;;;;;;;;;12.98;62.62;100977.72;5012109;28;863;-60
2021/10/24 09:34:14;;;;;;;;;;;;;;;12.94;62.69;100982.47;5012227;28;866;-60
2021/10/24 09:37:00;;;;;;;;;;;;;;;13.16;62.18;100968.66;5012080;28;916;-59
2021/10/24 09:42:29;;;;;;;;;;;;;;;13.19;60.31;100974.25;5011721;28;625;-60
2021/10/24 09:45:06;;;;;;;;;;;;;;;13.14;60.75;100969.03;5011895;28;886;-60
2021/10/24 09:47:41;;;;;;;;;;;;;;;13.13;59.25;100972.22;5012039;28;811;-60
2021/10/24 09:50:30;;;;;;;;;;;;;;;13.04;59.04;100961.50;5012352;28;831;-60
2021/10/24 09:53:18;;;;;;;;;;;;;;;13.16;59.28;100977.78;4994326;28;964;-60
2021/10/24 09:55:46;;;;;;;;;;;;;;;13.33;59.80;100962.38;5011794;28;1144;-60
2021/10/24 10:01:16;;;;;;;;;;;;;;;13.49;57.30;100975.94;5011833;28;1961;-60
2021/10/24 10:03:43;;;;;;;;;;;;;;;13.64;56.32;100976.75;5011706;28;893;-60
2021/10/24 10:18:21;;;;;;;;;;;;;;;13.99;58.93;100989.06;5011730;28;1460;-60
2021/10/24 10:20:49;;;;;;;;;;;;;;;14.15;59.63;100994.25;5011451;28;1914;-60
2021/10/24 10:23:21;;;;;;;;;;;;;;;14.35;58.12;100995.38;5011633;28;788;-61
2021/10/24 10:25:47;;;;;;;;;;;;;;;14.70;57.10;100993.75;4993916;28;1311;-61
2021/10/24 10:28:34;;;;;;;;;;;;;;;14.56;56.73;100983.47;5011544;28;847;-61
2021/10/24 10:31:11;;;;;;;;;;;;;;;14.17;53.27;100989.06;5001117;28;1296;-60
2021/10/24 10:33:38;;;;;;;;;;;;;;;13.96;54.82;100993.44;5011552;28;867;-61
2021/10/24 10:36:06;;;;;;;;;;;;;;;14.14;53.96;101007.31;5011454;28;855;-60
2021/10/24 10:38:41;;;;;;;;;;;;;;;14.28;58.10;100995.41;4993877;28;1316;-60
2021/10/24 10:41:09;;;;;;;;;;;;;;;14.71;57.80;100995.34;4993788;28;1949;-61
2021/10/24 10:43:36;;;;;;;;;;;;;;;14.99;54.55;100991.66;5011334;28;837;-61
2021/10/24 10:46:04;;;;;;;;;;;;;;;15.03;53.79;100984.09;5011381;28;827;-61
2021/10/24 10:48:31;;;;;;;;;;;;;;;14.95;50.71;100993.66;5011517;28;807;-60
2021/10/24 10:51:10;;;;;;;;;;;;;;;14.73;52.39;100992.97;5011355;28;859;-60
2021/10/24 10:53:37;;;;;;;;;;;;;;;14.76;52.44;100983.78;4993711;28;1193;-61
2021/10/24 10:56:05;;;;;;;;;;;;;;;14.94;52.85;100989.31;5014824;28;870;-61
2021/10/24 10:58:36;;;;;;;;;;;;;;;14.99;50.04;100985.31;5014959;28;864;-61
2021/10/24 11:01:03;;;;;;;;;;;;;;;15.06;52.18;100988.06;4997309;28;1894;-60
2021/10/24 11:03:50;;;;;;;;;;;;;;;15.16;55.85;100992.78;5014873;28;901;-61
2021/10/24 11:06:26;;;;;;;;;;;;;;;15.28;52.89;100986.75;4997113;28;1206;-60
2021/10/24 11:08:53;;;;;;;;;;;;;;;15.22;50.34;100993.97;4997469;28;1189;-60
2021/10/24 11:11:56;;;;;;;;;;;;;;;15.25;52.52;100993.13;5014690;28;810;-60
2021/10/24 11:14:22;;;;;;;;;;;;;;;15.23;51.09;101000.31;4954355;29;862;-59
2021/10/24 11:16:53;;;;;;;;;;;;;;;15.16;49.26;100986.44;5003111;28;1042;-60
2021/10/24 11:19:29;;;;;;;;;;;;;;;15.37;49.17;100994.69;5014378;28;1274;-60
2021/10/24 11:21:58;;;;;;;;;;;;;;;15.54;49.37;101001.34;5014562;28;1959;-60
2021/10/24 11:24:26;;;;;;;;;;;;;;;15.32;48.24;101001.47;5014561;28;810;-60
2021/10/24 11:27:00;;;;;;;;;;;;;;;15.28;47.93;100995.13;5014497;28;804;-60
2021/10/24 11:29:27;;;;;;;;;;;;;;;15.37;48.34;100991.09;5014451;28;807;-61
2021/10/24 11:32:12;;;;;;;;;;;;;;;15.45;52.90;101001.00;5014407;28;807;-60
2021/10/24 11:34:40;;;;;;;;;;;;;;;15.45;51.27;100987.88;5014283;28;834;-60
2021/10/24 11:37:08;;;;;;;;;;;;;;;15.42;47.22;100999.81;5014327;28;803;-60
2021/10/24 11:39:35;;;;;;;;;;;;;;;15.50;51.17;101000.56;5014191;28;846;-60
2021/10/24 11:42:08;;;;;;;;;;;;;;;15.39;50.15;100992.28;5014327;28;1897;-60
2021/10/24 11:44:34;;;;;;;;;;;;;;;15.62;48.49;100993.72;5014474;28;795;-61
2021/10/24 11:47:14;;;;;;;;;;;;;;;15.71;53.40;101000.47;4996711;28;1173;-60
2021/10/24 11:49:43;;;;;;;;;;;;;;;16.18;51.44;100996.53;5014098;28;866;-60
2021/10/24 11:52:10;;;;;;;;;;;;;;;15.61;48.18;101003.28;4996390;28;1201;-60
2021/10/24 11:54:36;;;;;;;;;;;;;;;14.48;47.36;101009.69;5014180;28;815;-61
2021/10/24 11:57:28;;;;;;;;;;;;;;;13.73;49.83;101012.47;5013924;28;807;-60
2021/10/24 12:00:26;;;;;;;;;;;;;;;14.07;49.94;101016.47;5013855;28;1886;-60
2021/10/24 12:03:02;;;;;;;;;;;;;;;14.99;49.80;101010.38;5013264;28;1147;-61
2021/10/24 12:05:30;;;;;;;;;;;;;;;15.60;47.93;101002.50;5013303;28;807;-61
2021/10/24 12:07:59;;;;;;;;;;;;;;;15.81;47.68;101009.97;4995796;28;1197;-60
2021/10/24 12:10:39;;;;;;;;;;;;;;;15.89;47.81;101010.69;5013505;28;795;-60
2021/10/24 12:13:06;;;;;;;;;;;;;;;16.57;49.52;101009.28;5013797;28;846;-61
2021/10/24 12:15:37;;;;;;;;;;;;;;;16.31;45.98;101005.97;5013535;28;787;-60
2021/10/24 12:18:22;;;;;;;;;;;;;;;16.35;48.56;101012.28;5013767;28;1234;-61
2021/10/24 12:21:06;;;;;;;;;;;;;;;16.36;42.29;101013.88;5012939;28;1910;-60
2021/10/24 12:23:34;;;;;;;;;;;;;;;15.42;43.20;101022.09;5013421;28;854;-61
2021/10/24 12:26:06;;;;;;;;;;;;;;;14.61;46.99;101027.56;5013292;28;1093;-61
2021/10/24 12:28:35;;;;;;;;;;;;;;;15.01;51.44;101025.47;5013460;28;858;-61
2021/10/24 12:31:04;;;;;;;;;;;;;;;15.81;47.35;101034.22;5013462;28;819;-61
2021/10/24 12:33:40;;;;;;;;;;;;;;;16.02;47.64;101020.13;5013471;28;791;-61
2021/10/24 12:36:08;;;;;;;;;;;;;;;16.20;44.41;101020.00;5013308;28;795;-61
2021/10/24 12:38:51;;;;;;;;;;;;;;;16.48;46.80;101026.53;5013159;28;787;-61
2021/10/24 12:41:35;;;;;;;;;;;;;;;16.51;42.80;101037.66;5013006;28;1922;-61
2021/10/24 12:44:03;;;;;;;;;;;;;;;16.31;41.98;101028.28;5012983;28;819;-61
2021/10/24 12:46:34;;;;;;;;;;;;;;;16.32;42.52;101019.50;5013757;28;728;-61
2021/10/24 12:49:13;;;;;;;;;;;;;;;16.33;42.00;101032.22;4995366;28;1332;-62
2021/10/24 12:51:41;;;;;;;;;;;;;;;16.60;44.74;101039.16;5012878;28;901;-61
2021/10/24 12:54:09;;;;;;;;;;;;;;;16.58;43.79;101047.97;5012929;28;854;-61
2021/10/24 12:56:38;;;;;;;;;;;;;;;16.64;45.28;101051.88;5012827;28;823;-61
2021/10/24 12:59:05;;;;;;;;;;;;;;;16.45;44.83;101044.91;5012762;28;822;-61
2021/10/24 13:01:33;;;;;;;;;;;;;;;16.29;44.24;101045.41;5012660;28;1879;-61
2021/10/24 13:04:01;;;;;;;;;;;;;;;16.35;49.01;101045.78;5013375;28;809;-61
2021/10/24 13:06:29;;;;;;;;;;;;;;;16.54;49.05;101048.00;5012840;28;846;-61
2021/10/24 13:08:57;;;;;;;;;;;;;;;16.59;45.63;101049.53;5012886;28;873;-61
2021/10/24 13:11:24;;;;;;;;;;;;;;;16.38;43.66;101050.53;5012525;28;857;-61
2021/10/24 13:13:51;;;;;;;;;;;;;;;16.07;42.54;101052.38;5012563;28;811;-61
2021/10/24 13:16:18;;;;;;;;;;;;;;;15.91;44.79;101058.47;4994956;28;1621;-61
2021/10/24 13:18:46;;;;;;;;;;;;;;;16.01;44.12;101057.59;5012295;28;1271;-61
2021/10/24 13:22:54;;;;;;;;;;;;;;;16.07;44.23;101057.97;5012425;28;1965;-61
2021/10/24 13:24:03;;;;;;;;;;;;;;;16.18;49.20;101064.25;5012281;28;798;-61
2021/10/24 13:26:31;;;;;;;;;;;;;;;16.39;52.73;101068.88;5012328;28;826;-61
2021/10/24 13:28:57;;;;;;;;;;;;;;;16.41;47.91;101060.88;5012436;28;795;-61
2021/10/24 13:31:24;;;;;;;;;;;;;;;16.09;43.73;101063.94;5012236;28;862;-61
2021/10/24 13:33:52;;;;;;;;;;;;;;;15.82;50.85;101064.50;5012218;28;860;-61
2021/10/24 13:36:18;;;;;;;;;;;;;;;15.57;44.45;101069.41;5012200;28;811;-61
2021/10/24 13:38:45;;;;;;;;;;;;;;;15.17;44.99;101080.72;5012090;28;901;-61
2021/10/24 13:41:10;;;;;;;;;;;;;;;14.92;47.61;101071.66;5011982;28;1973;-61
2021/10/24 13:43:37;;;;;;;;;;;;;;;14.87;51.51;101075.59;5012143;28;831;-61
2021/10/24 13:46:03;;;;;;;;;;;;;;;14.95;49.73;101076.41;5012055;28;807;-61
2021/10/24 13:48:30;;;;;;;;;;;;;;;14.73;47.85;101076.44;5012008;28;796;-61
2021/10/24 13:50:56;;;;;;;;;;;;;;;14.53;47.56;101078.03;5012049;28;784;-61
2021/10/24 13:53:23;;;;;;;;;;;;;;;14.34;47.66;101088.38;5012103;28;803;-60
2021/10/24 13:55:51;;;;;;;;;;;;;;;14.22;53.22;101083.19;5011987;28;855;-60
2021/10/24 13:58:18;;;;;;;;;;;;;;;14.26;55.68;101082.00;5012116;28;847;-61
2021/10/24 14:00:44;;;;;;;;;;;;;;;14.44;59.20;101078.41;5011770;28;1883;-60
2021/10/24 14:03:11;;;;;;;;;;;;;;;14.52;60.12;101077.22;5011995;28;799;-61
2021/10/24 14:05:37;;;;;;;;;;;;;;;14.33;50.84;101072.88;5012001;28;851;-61
2021/10/24 14:08:04;;;;;;;;;;;;;;;14.03;52.49;101081.59;5012053;28;799;-61
2021/10/24 14:10:31;;;;;;;;;;;;;;;13.78;50.23;101087.88;5011989;28;899;-61
2021/10/24 14:12:58;;;;;;;;;;;;;;;13.55;48.48;101088.22;5012213;28;799;-61